createdAt,value
2023-08-12T00:00:20.522Z,75.59
2023-08-12T00:02:48.470Z,75.33
2023-08-12T00:05:15.334Z,75.28
2023-08-12T00:07:44.916Z,75.14
2023-08-12T00:10:12.890Z,75.19
2023-08-12T00:12:39.955Z,75.38
2023-08-12T00:15:09.172Z,75.19
2023-08-12T00:17:38.300Z,75.16
2023-08-12T00:20:12.382Z,75.29
2023-08-12T00:22:39.993Z,75.23
2023-08-12T00:25:07.496Z,75.18
2023-08-12T00:27:34.711Z,75.33
2023-08-12T00:30:02.041Z,75.18
2023-08-12T00:32:29.520Z,75.36
2023-08-12T00:34:56.423Z,75.17
2023-08-12T00:37:23.389Z,75.12
2023-08-12T00:39:50.222Z,74.91
2023-08-12T00:42:17.283Z,74.87
2023-08-12T00:44:44.085Z,74.68
2023-08-12T00:47:11.259Z,74.39
2023-08-12T00:49:41.124Z,74.33
2023-08-12T00:52:08.014Z,74.44
2023-08-12T00:54:35.030Z,74.42
2023-08-12T00:57:02.112Z,74.44
2023-08-12T00:59:29.306Z,74.39
2023-08-12T01:01:56.210Z,74.44
2023-08-12T01:04:23.032Z,74.44
2023-08-12T01:06:51.400Z,74.28
2023-08-12T01:09:18.280Z,74.48
2023-08-12T01:11:51.099Z,74.30
2023-08-12T01:14:24.888Z,75.34
2023-08-12T01:16:56.309Z,74.83
2023-08-12T01:19:35.193Z,74.96
2023-08-12T01:22:03.765Z,74.70
2023-08-12T01:24:46.010Z,75.41
2023-08-12T01:27:14.339Z,75.31
2023-08-12T01:29:46.204Z,75.13
2023-08-12T01:32:26.244Z,75.15
2023-08-12T01:35:31.391Z,75.18
2023-08-12T01:37:59.164Z,75.37
2023-08-12T01:40:26.630Z,75.45
2023-08-12T01:42:53.740Z,75.42
2023-08-12T01:45:20.692Z,75.47
2023-08-12T01:47:47.689Z,75.59
2023-08-12T01:50:14.591Z,75.37
2023-08-12T01:52:41.825Z,75.36
2023-08-12T01:55:09.184Z,75.38
2023-08-12T01:57:36.049Z,75.52
2023-08-12T02:00:05.246Z,75.64
2023-08-12T02:02:44.026Z,75.53
2023-08-12T02:05:11.160Z,75.55
2023-08-12T02:07:38.115Z,75.56
2023-08-12T02:10:05.289Z,75.49
2023-08-12T02:12:32.720Z,75.42
2023-08-12T02:14:59.636Z,75.94
2023-08-12T02:17:26.475Z,76.15
2023-08-12T02:19:53.271Z,75.86
2023-08-12T02:22:20.080Z,75.79
2023-08-12T02:24:47.532Z,75.93
2023-08-12T02:27:14.884Z,75.57
2023-08-12T02:29:41.648Z,75.54
2023-08-12T02:32:08.357Z,75.27
2023-08-12T02:34:35.251Z,74.99
2023-08-12T02:37:02.002Z,74.84
2023-08-12T02:39:30.650Z,74.67
2023-08-12T02:41:57.356Z,74.67
2023-08-12T02:44:24.220Z,74.34
2023-08-12T02:46:51.023Z,74.99
2023-08-12T02:49:17.879Z,75.57
2023-08-12T02:51:44.650Z,75.60
2023-08-12T02:54:11.422Z,75.79
2023-08-12T02:56:38.244Z,76.11
2023-08-12T02:59:05.348Z,75.12
2023-08-12T03:01:32.236Z,74.99
2023-08-12T03:03:59.050Z,74.81
2023-08-12T03:06:26.014Z,75.13
2023-08-12T03:08:52.997Z,75.25
2023-08-12T03:11:20.427Z,75.12
2023-08-12T03:13:47.486Z,75.30
2023-08-12T03:16:15.508Z,76.00
2023-08-12T03:18:44.941Z,76.41
2023-08-12T03:21:12.100Z,76.60
2023-08-12T03:23:40.292Z,77.32
2023-08-12T03:26:09.296Z,77.30
2023-08-12T03:28:36.698Z,77.13
2023-08-12T03:31:03.904Z,77.65
2023-08-12T03:33:34.765Z,77.76
2023-08-12T03:36:02.409Z,77.92
2023-08-12T03:38:29.274Z,78.11
2023-08-12T03:40:56.168Z,78.21
2023-08-12T03:43:23.206Z,78.34
2023-08-12T03:45:50.671Z,78.38
2023-08-12T03:48:20.092Z,78.48
2023-08-12T03:50:48.525Z,78.34
2023-08-12T03:53:15.363Z,78.19
2023-08-12T03:55:43.025Z,78.50
2023-08-12T03:58:10.469Z,78.29
2023-08-12T04:00:41.980Z,78.16
2023-08-12T04:03:09.062Z,78.46
2023-08-12T04:05:36.007Z,78.70
2023-08-12T04:08:03.538Z,78.60
2023-08-12T04:10:31.266Z,78.42
2023-08-12T04:12:58.015Z,78.84
2023-08-12T04:15:24.831Z,78.87
2023-08-12T04:17:52.926Z,78.86
2023-08-12T04:20:19.892Z,78.84
2023-08-12T04:22:49.871Z,78.93
2023-08-12T04:25:17.269Z,78.81
2023-08-12T04:27:44.268Z,78.04
2023-08-12T04:30:11.442Z,78.35
2023-08-12T04:32:38.752Z,79.13
2023-08-12T04:35:09.123Z,79.09
2023-08-12T04:37:37.676Z,79.44
2023-08-12T04:40:06.203Z,79.53
2023-08-12T04:42:33.034Z,79.53
2023-08-12T04:45:00.029Z,79.71
2023-08-12T04:47:30.441Z,79.36
2023-08-12T04:49:57.523Z,78.85
2023-08-12T04:52:25.499Z,79.17
2023-08-12T04:54:55.717Z,79.44
2023-08-12T04:57:24.362Z,79.17
2023-08-12T04:59:51.369Z,79.67
2023-08-12T05:02:19.848Z,79.70
2023-08-12T05:04:51.062Z,79.96
2023-08-12T05:07:18.469Z,79.70
2023-08-12T05:09:45.440Z,79.66
2023-08-12T05:12:14.710Z,79.82
2023-08-12T05:14:42.085Z,79.75
2023-08-12T05:17:09.837Z,79.55
2023-08-12T05:19:37.673Z,79.83
2023-08-12T05:22:04.714Z,79.62
2023-08-12T05:24:31.618Z,79.64
2023-08-12T05:26:58.361Z,79.67
2023-08-12T05:29:25.131Z,79.90
2023-08-12T05:31:51.882Z,80.14
2023-08-12T05:34:18.714Z,80.22
2023-08-12T05:36:45.509Z,80.05
2023-08-12T05:39:12.320Z,80.45
2023-08-12T05:41:39.405Z,80.57
2023-08-12T05:44:06.648Z,80.80
2023-08-12T05:46:33.472Z,80.54
2023-08-12T05:49:00.425Z,80.63
2023-08-12T05:51:30.181Z,80.60
2023-08-12T05:53:57.746Z,80.67
2023-08-12T05:56:24.471Z,80.60
2023-08-12T05:58:51.219Z,80.31
2023-08-12T06:01:19.410Z,80.29
2023-08-12T06:03:46.245Z,80.29
2023-08-12T06:06:13.107Z,80.18
2023-08-12T06:08:39.812Z,80.14
2023-08-12T06:11:06.592Z,80.25
2023-08-12T06:13:33.346Z,79.96
2023-08-12T06:16:00.470Z,80.13
2023-08-12T06:18:27.392Z,80.35
2023-08-12T06:20:54.124Z,80.46
2023-08-12T06:23:21.222Z,80.36
2023-08-12T06:25:48.032Z,80.89
2023-08-12T06:28:14.901Z,80.67
2023-08-12T06:30:41.661Z,80.27
2023-08-12T06:33:08.450Z,79.92
2023-08-12T06:35:35.474Z,79.88
2023-08-12T06:38:02.214Z,79.64
2023-08-12T06:40:29.023Z,79.21
2023-08-12T06:42:55.791Z,79.27
2023-08-12T06:45:22.498Z,78.85
2023-08-12T06:47:49.222Z,79.11
2023-08-12T06:50:16.011Z,79.00
2023-08-12T06:52:42.778Z,79.84
2023-08-12T06:55:10.366Z,79.33
2023-08-12T06:57:37.059Z,79.14
2023-08-12T07:00:04.586Z,78.62
2023-08-12T07:02:31.456Z,78.74
2023-08-12T07:04:58.244Z,78.69
2023-08-12T07:07:25.032Z,78.85
2023-08-12T07:09:51.775Z,78.56
2023-08-12T07:12:18.574Z,78.60
2023-08-12T07:14:45.288Z,78.39
2023-08-12T07:17:12.091Z,78.59
2023-08-12T07:19:39.084Z,78.65
2023-08-12T07:22:05.833Z,78.47
2023-08-12T07:24:32.621Z,78.33
2023-08-12T07:26:59.535Z,78.56
2023-08-12T07:29:26.309Z,78.41
2023-08-12T07:31:53.597Z,78.47
2023-08-12T07:34:20.317Z,78.16
2023-08-12T07:36:47.241Z,78.16
2023-08-12T07:39:14.115Z,78.44
2023-08-12T07:41:40.970Z,78.70
2023-08-12T07:44:07.759Z,78.70
2023-08-12T07:46:34.556Z,78.69
2023-08-12T07:49:01.442Z,78.62
2023-08-12T07:51:28.320Z,79.74
2023-08-12T07:53:55.077Z,79.23
2023-08-12T07:56:22.113Z,79.09
2023-08-12T07:58:49.007Z,79.49
2023-08-12T08:01:15.909Z,80.00
2023-08-12T08:03:42.745Z,80.93
2023-08-12T08:06:09.504Z,82.14
2023-08-12T08:08:36.330Z,81.61
2023-08-12T08:11:03.137Z,81.46
2023-08-12T08:13:29.911Z,80.85
2023-08-12T08:15:56.829Z,81.18
2023-08-12T08:18:24.338Z,81.26
2023-08-12T08:20:51.725Z,80.92
2023-08-12T08:23:18.673Z,81.22
2023-08-12T08:25:45.471Z,81.24
2023-08-12T08:28:12.541Z,81.56
2023-08-12T08:30:39.492Z,81.64
2023-08-12T08:33:06.763Z,82.02
2023-08-12T08:35:33.656Z,82.14
2023-08-12T08:38:00.499Z,82.66
2023-08-12T08:40:28.018Z,82.37
2023-08-12T08:42:55.138Z,82.38
2023-08-12T08:45:23.822Z,82.37
2023-08-12T08:47:52.716Z,82.34
2023-08-12T08:50:20.268Z,82.04
2023-08-12T08:52:47.411Z,81.93
2023-08-12T08:55:15.061Z,82.03
2023-08-12T08:57:47.655Z,82.10
2023-08-12T09:00:17.893Z,81.53
2023-08-12T09:02:47.260Z,81.39
2023-08-12T09:05:15.986Z,81.58
2023-08-12T09:07:45.032Z,81.73
2023-08-12T09:10:15.000Z,81.79
2023-08-12T09:12:43.676Z,82.35
2023-08-12T09:15:11.063Z,82.11
2023-08-12T09:17:38.652Z,83.14
2023-08-12T09:20:13.146Z,83.36
2023-08-12T09:22:44.865Z,82.87
2023-08-12T09:25:12.221Z,82.24
2023-08-12T09:27:39.601Z,82.91
2023-08-12T09:30:07.057Z,82.26
2023-08-12T09:32:35.762Z,82.34
2023-08-12T09:35:07.086Z,82.84
2023-08-12T09:37:34.168Z,82.43
2023-08-12T09:40:01.981Z,82.11
2023-08-12T09:42:29.495Z,81.75
2023-08-12T09:44:57.790Z,81.42
2023-08-12T09:47:26.550Z,81.57
2023-08-12T09:49:53.409Z,81.49
2023-08-12T09:52:20.214Z,81.56
2023-08-12T09:54:47.004Z,81.38
2023-08-12T09:57:15.544Z,80.92
2023-08-12T09:59:42.687Z,80.81
2023-08-12T10:02:14.570Z,81.21
2023-08-12T10:04:43.459Z,81.06
2023-08-12T10:07:14.155Z,81.77
2023-08-12T10:09:41.396Z,81.72
2023-08-12T10:12:08.793Z,81.77
2023-08-12T10:14:35.785Z,81.55
2023-08-12T10:17:06.117Z,81.24
2023-08-12T10:19:33.592Z,81.09
2023-08-12T10:22:00.544Z,81.15
2023-08-12T10:24:28.061Z,81.46
2023-08-12T10:26:55.260Z,80.92
2023-08-12T10:29:24.117Z,81.31
2023-08-12T10:31:51.247Z,81.01
2023-08-12T10:34:25.285Z,80.79
2023-08-12T10:37:02.913Z,80.40
2023-08-12T10:39:32.801Z,79.63
2023-08-12T10:42:00.245Z,80.12
2023-08-12T10:44:52.045Z,80.62
2023-08-12T10:47:18.943Z,79.48
2023-08-12T10:49:49.923Z,79.62
2023-08-12T10:52:30.187Z,79.14
2023-08-12T10:55:20.478Z,79.43
2023-08-12T10:57:47.386Z,79.89
2023-08-12T11:00:19.316Z,79.46
2023-08-12T11:02:46.899Z,78.21
2023-08-12T11:05:15.499Z,78.14
2023-08-12T11:07:53.297Z,77.50
2023-08-12T11:10:25.571Z,77.71
2023-08-12T11:12:52.491Z,77.40
2023-08-12T11:15:39.939Z,76.65
2023-08-12T11:18:11.416Z,77.06
2023-08-12T11:20:38.605Z,77.68
2023-08-12T11:23:06.473Z,78.48
2023-08-12T11:25:34.405Z,76.78
2023-08-12T11:28:01.579Z,76.56
2023-08-12T11:30:31.953Z,76.30
2023-08-12T11:33:00.288Z,75.84
2023-08-12T11:35:27.311Z,74.65
2023-08-12T11:37:56.675Z,74.68
2023-08-12T11:40:25.356Z,75.22
2023-08-12T11:42:52.801Z,74.78
2023-08-12T11:45:24.928Z,74.53
2023-08-12T11:47:55.959Z,75.76
2023-08-12T11:50:27.768Z,75.90
2023-08-12T11:52:55.517Z,75.60
2023-08-12T11:55:23.102Z,75.51
2023-08-12T11:57:51.532Z,74.87
2023-08-12T12:00:19.997Z,75.87
2023-08-12T12:02:54.332Z,75.89
2023-08-12T12:05:35.749Z,78.58
2023-08-12T12:08:02.658Z,78.21
2023-08-12T12:10:34.453Z,78.73
2023-08-12T12:13:04.073Z,79.67
2023-08-12T12:15:31.977Z,80.34
2023-08-12T12:17:59.532Z,80.88
2023-08-12T12:20:28.143Z,82.06
2023-08-12T12:22:56.122Z,82.20
2023-08-12T12:25:23.318Z,82.90
2023-08-12T12:27:50.151Z,84.09
2023-08-12T12:30:17.898Z,85.18
2023-08-12T12:32:46.308Z,84.65
2023-08-12T12:35:13.422Z,84.69
2023-08-12T12:37:40.538Z,83.76
2023-08-12T12:40:08.374Z,84.71
2023-08-12T12:42:35.224Z,84.46
2023-08-12T12:45:02.068Z,85.38
2023-08-12T12:47:29.014Z,86.58
2023-08-12T12:49:55.846Z,87.96
2023-08-12T12:52:22.617Z,89.06
2023-08-12T12:54:49.477Z,90.55
2023-08-12T12:57:16.744Z,89.95
2023-08-12T12:59:43.505Z,89.81
2023-08-12T13:02:10.810Z,90.37
2023-08-12T13:04:37.791Z,90.50
2023-08-12T13:07:04.561Z,88.73
2023-08-12T13:09:32.155Z,88.19
2023-08-12T13:11:59.417Z,90.19
2023-08-12T13:14:26.206Z,88.64
2023-08-12T13:16:53.052Z,87.88
2023-08-12T13:19:20.007Z,89.35
2023-08-12T13:21:46.918Z,89.85
2023-08-12T13:24:13.800Z,89.82
2023-08-12T13:26:40.614Z,89.14
2023-08-12T13:29:07.467Z,89.49
2023-08-12T13:31:34.460Z,89.76
2023-08-12T13:34:01.633Z,90.41
2023-08-12T13:36:28.486Z,90.45
2023-08-12T13:38:55.379Z,90.20
2023-08-12T13:41:22.274Z,90.81
2023-08-12T13:43:49.095Z,90.59
2023-08-12T13:46:15.989Z,89.87
2023-08-12T13:48:43.334Z,90.26
2023-08-12T13:51:10.488Z,89.17
2023-08-12T13:53:37.276Z,89.32
2023-08-12T13:56:04.072Z,89.90
2023-08-12T13:58:30.797Z,89.50
2023-08-12T14:00:57.617Z,89.32
2023-08-12T14:03:24.463Z,89.34
2023-08-12T14:05:51.485Z,87.86
2023-08-12T14:08:18.334Z,88.24
2023-08-12T14:10:47.061Z,89.29
2023-08-12T14:13:13.854Z,89.76
2023-08-12T14:15:41.840Z,90.72
2023-08-12T14:18:09.372Z,90.73
2023-08-12T14:20:36.495Z,91.98
2023-08-12T14:23:03.432Z,91.78
2023-08-12T14:25:31.028Z,91.62
2023-08-12T14:27:57.817Z,91.80
2023-08-12T14:30:26.188Z,91.54
2023-08-12T14:32:53.608Z,91.80
2023-08-12T14:35:25.535Z,91.44
2023-08-12T14:37:52.215Z,91.61
2023-08-12T14:40:19.114Z,91.88
2023-08-12T14:42:45.982Z,92.21
2023-08-12T14:45:12.875Z,92.79
2023-08-12T14:47:39.924Z,93.04
2023-08-12T14:50:07.309Z,92.78
2023-08-12T14:52:34.284Z,93.00
2023-08-12T14:55:01.137Z,93.13
2023-08-12T14:57:27.979Z,93.98
2023-08-12T14:59:54.976Z,93.86
2023-08-12T15:02:23.790Z,94.22
2023-08-12T15:04:51.027Z,94.23
2023-08-12T15:07:19.639Z,94.51
2023-08-12T15:09:46.873Z,94.65
2023-08-12T15:12:13.681Z,94.31
2023-08-12T15:14:40.906Z,94.38
2023-08-12T15:21:38.867Z,95.76
2023-08-12T15:24:05.868Z,96.08
2023-08-12T15:27:54.771Z,95.31
2023-08-12T15:30:12.260Z,95.81
2023-08-12T15:32:41.500Z,96.68
2023-08-12T15:35:10.709Z,96.89
2023-08-12T15:37:37.465Z,97.63
2023-08-12T15:40:04.708Z,96.82
2023-08-12T15:42:33.783Z,97.30
2023-08-12T15:45:00.622Z,96.96
2023-08-12T15:47:27.320Z,96.18
2023-08-12T15:49:54.272Z,96.66
2023-08-12T15:52:21.397Z,97.67
2023-08-12T15:54:48.380Z,97.77
2023-08-12T15:57:15.333Z,98.20
2023-08-12T15:59:42.279Z,98.32
2023-08-12T16:02:10.519Z,98.07
2023-08-12T16:04:37.592Z,98.61
2023-08-12T16:07:04.398Z,99.03
2023-08-12T16:09:31.640Z,99.23
2023-08-12T16:11:58.444Z,99.20
2023-08-12T16:14:25.285Z,99.51
2023-08-12T16:16:52.338Z,99.78
2023-08-12T16:19:19.325Z,99.95
2023-08-12T16:21:46.182Z,99.79
2023-08-12T16:24:12.921Z,100.00
2023-08-12T16:26:39.781Z,99.98
2023-08-12T16:29:06.559Z,99.96
2023-08-12T16:31:33.434Z,99.79
2023-08-12T16:34:00.603Z,100.00
2023-08-12T16:36:27.607Z,100.00
2023-08-12T16:38:54.419Z,100.00
2023-08-12T16:41:21.417Z,100.00
2023-08-12T16:43:48.162Z,100.00
2023-08-12T16:46:14.960Z,100.00
2023-08-12T16:48:41.674Z,100.00
2023-08-12T16:51:08.642Z,100.00
2023-08-12T16:53:35.424Z,100.00
2023-08-12T16:56:02.186Z,100.00
2023-08-12T16:58:28.883Z,100.00
2023-08-12T17:00:55.626Z,100.00
2023-08-12T17:03:22.554Z,100.00
2023-08-12T17:05:49.310Z,100.00
2023-08-12T17:08:16.301Z,99.99
2023-08-12T17:10:43.110Z,99.81
2023-08-12T17:13:09.843Z,100.00
2023-08-12T17:15:36.921Z,100.00
2023-08-12T17:18:03.932Z,100.00
2023-08-12T17:20:31.069Z,100.00
2023-08-12T17:22:57.924Z,100.00
2023-08-12T17:25:24.829Z,99.97
2023-08-12T17:27:51.887Z,99.89
2023-08-12T17:30:19.398Z,99.93
2023-08-12T17:32:46.239Z,99.59
2023-08-12T17:35:13.042Z,99.71
2023-08-12T17:37:40.149Z,99.44
2023-08-12T17:40:07.879Z,99.43
2023-08-12T17:42:34.926Z,99.69
2023-08-12T17:45:01.685Z,100.00
2023-08-12T17:47:28.615Z,100.00
2023-08-12T17:49:55.590Z,100.00
2023-08-12T17:52:22.355Z,100.00
2023-08-12T17:54:49.340Z,100.00
2023-08-12T17:57:16.046Z,100.00
2023-08-12T17:59:42.817Z,100.00
2023-08-12T18:02:09.628Z,100.00
2023-08-12T18:04:36.669Z,100.00
2023-08-12T18:07:04.608Z,100.00
2023-08-12T18:09:31.326Z,100.00
2023-08-12T18:11:58.240Z,100.00
2023-08-12T18:14:25.182Z,99.92
2023-08-12T18:16:52.114Z,99.78
2023-08-12T18:19:18.934Z,99.32
2023-08-12T18:21:45.731Z,99.43
2023-08-12T18:24:12.640Z,98.93
2023-08-12T18:26:39.383Z,98.90
2023-08-12T18:29:06.163Z,98.91
2023-08-12T18:31:33.079Z,98.40
2023-08-12T18:33:59.972Z,98.33
2023-08-12T18:36:26.929Z,97.99
2023-08-12T18:38:53.683Z,98.20
2023-08-12T18:41:20.495Z,98.05
2023-08-12T18:43:47.283Z,97.91
2023-08-12T18:46:14.278Z,97.63
2023-08-12T18:48:41.362Z,98.00
2023-08-12T18:51:08.114Z,97.85
2023-08-12T18:53:34.903Z,97.97
2023-08-12T18:56:01.700Z,97.64
2023-08-12T18:58:29.165Z,97.48
2023-08-12T19:00:56.172Z,97.23
2023-08-12T19:03:55.512Z,97.39
2023-08-12T19:06:22.372Z,96.96
2023-08-12T19:08:49.316Z,96.77
2023-08-12T19:11:21.633Z,96.49
2023-08-12T19:13:48.969Z,96.81
2023-08-12T19:16:15.958Z,96.44
2023-08-12T19:18:42.830Z,96.20
2023-08-12T19:22:18.654Z,95.94
2023-08-12T19:24:24.169Z,96.18
2023-08-12T19:26:50.965Z,96.19
2023-08-12T19:29:19.093Z,95.84
2023-08-12T19:31:45.957Z,95.65
2023-08-12T19:34:12.876Z,95.47
2023-08-12T19:36:39.783Z,95.45
2023-08-12T19:39:06.815Z,95.24
2023-08-12T19:41:33.841Z,94.98
2023-08-12T19:44:00.685Z,94.79
2023-08-12T19:46:27.466Z,94.66
2023-08-12T19:48:55.629Z,94.57
2023-08-12T19:51:22.608Z,94.61
2023-08-12T19:53:49.449Z,94.71
2023-08-12T19:56:16.201Z,94.81
2023-08-12T19:58:43.345Z,94.62
2023-08-12T20:01:10.153Z,94.51
2023-08-12T20:03:37.145Z,94.63
2023-08-12T20:06:05.324Z,94.21
2023-08-12T20:08:32.136Z,94.24
2023-08-12T20:10:59.027Z,94.12
2023-08-12T20:13:26.081Z,93.75
2023-08-12T20:15:58.753Z,93.60
2023-08-12T20:18:25.976Z,94.13
2023-08-12T20:20:53.818Z,94.30
2023-08-12T20:23:21.003Z,93.80
2023-08-12T20:27:28.932Z,93.22
2023-08-12T20:29:38.884Z,93.49
2023-08-12T20:32:05.778Z,93.20
2023-08-12T20:34:32.597Z,92.67
2023-08-12T20:36:59.403Z,92.68
2023-08-12T20:39:26.445Z,92.40
2023-08-12T20:41:53.379Z,92.41
2023-08-12T20:44:20.156Z,92.27
2023-08-12T20:46:47.271Z,92.06
2023-08-12T20:49:14.279Z,92.19
2023-08-12T20:51:41.031Z,92.37
2023-08-12T20:54:07.967Z,92.75
2023-08-12T20:56:34.946Z,92.26
2023-08-12T20:59:01.673Z,92.52
2023-08-12T21:01:28.676Z,92.02
2023-08-12T21:03:55.628Z,92.04
2023-08-12T21:06:22.510Z,92.33
2023-08-12T21:08:49.256Z,92.27
2023-08-12T21:11:16.136Z,92.69
2023-08-12T21:13:44.048Z,92.87
2023-08-12T21:16:11.027Z,92.32
2023-08-12T21:18:37.881Z,92.58
2023-08-12T21:21:05.830Z,92.34
2023-08-12T21:23:32.614Z,92.29
2023-08-12T21:25:59.518Z,92.26
2023-08-12T21:28:26.319Z,92.65
2023-08-12T21:30:53.729Z,92.64
2023-08-12T21:33:20.759Z,92.57
2023-08-12T21:35:47.710Z,92.15
2023-08-12T21:38:14.564Z,92.47
2023-08-12T21:40:41.379Z,92.50
2023-08-12T21:43:08.181Z,92.00
2023-08-12T21:45:35.105Z,92.24
2023-08-12T21:48:01.992Z,92.69
2023-08-12T21:50:28.774Z,91.98
2023-08-12T21:52:55.608Z,91.81
2023-08-12T21:55:22.396Z,91.75
2023-08-12T21:57:50.078Z,92.00
2023-08-12T22:00:16.848Z,92.02
2023-08-12T22:02:44.709Z,92.39
2023-08-12T22:05:13.130Z,92.00
2023-08-12T22:07:39.949Z,91.96
2023-08-12T22:10:07.464Z,91.82
2023-08-12T22:12:34.306Z,91.60
2023-08-12T22:15:01.277Z,91.72
2023-08-12T22:17:29.863Z,91.55
2023-08-12T22:19:56.727Z,91.24
2023-08-12T22:22:23.910Z,91.23
2023-08-12T22:24:51.116Z,91.25
2023-08-12T22:27:17.888Z,91.21
2023-08-12T22:29:44.666Z,91.20
2023-08-12T22:32:11.891Z,91.01
2023-08-12T22:34:39.042Z,91.90
2023-08-12T22:37:05.816Z,91.53
2023-08-12T22:39:32.587Z,90.63
2023-08-12T22:41:59.341Z,90.58
2023-08-12T22:44:26.094Z,90.34
2023-08-12T22:46:52.864Z,90.57
2023-08-12T22:49:19.674Z,90.76
2023-08-12T22:51:46.439Z,90.59
2023-08-12T22:54:13.148Z,90.70
2023-08-12T22:56:39.903Z,90.81
2023-08-12T22:59:06.627Z,90.49
2023-08-12T23:01:33.347Z,90.88
2023-08-12T23:04:00.087Z,91.08
2023-08-12T23:06:26.826Z,90.94
2023-08-12T23:08:53.685Z,90.90
2023-08-12T23:11:20.443Z,91.17
2023-08-12T23:13:47.154Z,91.13
2023-08-12T23:16:13.946Z,91.48
2023-08-12T23:18:40.723Z,91.26
2023-08-12T23:21:07.531Z,91.81
2023-08-12T23:23:34.254Z,91.64
2023-08-12T23:26:01.045Z,91.78
2023-08-12T23:28:27.789Z,91.74
2023-08-12T23:30:54.646Z,92.63
2023-08-12T23:33:21.436Z,92.41
2023-08-12T23:35:48.251Z,92.34
2023-08-12T23:38:15.062Z,92.34
2023-08-12T23:40:41.843Z,92.22
2023-08-12T23:43:09.243Z,91.82
2023-08-12T23:45:37.702Z,90.82
2023-08-12T23:48:04.851Z,90.56
2023-08-12T23:50:31.733Z,90.46
2023-08-12T23:52:58.536Z,90.58
2023-08-12T23:55:25.657Z,90.87
2023-08-12T23:57:52.478Z,90.60
